Time;durP1;ratioP1;P1;durP2;ratioP2;P2;SDS_P1;SDS_P2;PMS_P1;PMS_P2;Temp;Humidity;BMP_temperature;BMP_pressure;BME280_temperature;BME280_humidity;BME280_pressure;Samples;Min_cycle;Max_cycle;Signal;HPM_P1;HPM_P2
2023/07/23 00:58:37;;;;;;;9.77;6.35;;;;;;;;;;2072666;28;20046;-94
2023/07/23 00:59:38;;;;;;;13.52;6.35;;;;;;;;;;2073557;28;20030;-94
2023/07/23 01:00:39;;;;;;;14.93;6.82;;;;;;;;;;2065688;28;20030;-94
2023/07/23 01:01:39;;;;;;;15.02;6.72;;;;;;;;;;2065731;28;20450;-96
2023/07/23 01:02:45;;;;;;;13.02;6.50;;;;;;;;;;2065872;28;20125;-95
2023/07/23 01:03:46;;;;;;;13.75;7.32;;;;;;;;;;2065939;28;20486;-94
2023/07/23 01:04:46;;;;;;;14.93;6.50;;;;;;;;;;2066684;28;20477;-94
2023/07/23 01:05:54;;;;;;;14.93;6.05;;;;;;;;;;2069261;28;20089;-95
2023/07/23 01:06:56;;;;;;;12.48;5.70;;;;;;;;;;2060413;28;20053;-94
2023/07/23 01:07:57;;;;;;;14.40;5.78;;;;;;;;;;2058869;28;20378;-93
2023/07/23 01:08:58;;;;;;;10.85;5.65;;;;;;;;;;2058873;28;20167;-95
2023/07/23 01:10:02;;;;;;;13.63;6.20;;;;;;;;;;2070459;28;20133;-95
2023/07/23 01:11:06;;;;;;;13.45;5.57;;;;;;;;;;2079509;28;20076;-94
2023/07/23 01:12:08;;;;;;;15.32;6.47;;;;;;;;;;2073765;28;20025;-96
2023/07/23 01:13:08;;;;;;;13.63;6.60;;;;;;;;;;2065443;28;20030;-95
2023/07/23 01:14:11;;;;;;;14.30;6.35;;;;;;;;;;2057406;28;20026;-94
2023/07/23 01:15:15;;;;;;;13.85;6.90;;;;;;;;;;2058149;28;20031;-96
2023/07/23 01:16:16;;;;;;;14.98;6.60;;;;;;;;;;2047854;28;20410;-94
2023/07/23 01:17:20;;;;;;;13.65;5.80;;;;;;;;;;2065586;28;20022;-96
2023/07/23 01:18:21;;;;;;;12.88;6.47;;;;;;;;;;1715149;28;10176527;-95
2023/07/23 01:19:26;;;;;;;12.67;5.63;;;;;;;;;;1711316;28;10281438;-95
2023/07/23 01:20:26;;;;;;;12.05;5.63;;;;;;;;;;2073684;28;20194;-95
2023/07/23 01:21:29;;;;;;;12.27;5.20;;;;;;;;;;2065419;28;20051;-94
2023/07/23 03:17:53;;;;;;;11.75;4.15;;;;;;;;;;2082328;22;20050;-96
2023/07/23 03:18:54;;;;;;;10.73;4.90;;;;;;;;;;2056478;28;20027;-96
2023/07/23 03:19:54;;;;;;;13.60;4.65;;;;;;;;;;2048531;29;20460;-94
2023/07/23 03:20:55;;;;;;;11.30;4.30;;;;;;;;;;2056427;28;20120;-95
2023/07/23 03:21:55;;;;;;;11.80;5.10;;;;;;;;;;2056603;28;20026;-95
2023/07/23 03:22:56;;;;;;;11.35;4.80;;;;;;;;;;2056278;28;20031;-94
2023/07/23 03:23:56;;;;;;;15.30;4.57;;;;;;;;;;2056671;28;20037;-95
2023/07/23 03:24:56;;;;;;;9.65;4.18;;;;;;;;;;2048397;28;20087;-94
2023/07/23 03:25:57;;;;;;;16.02;3.95;;;;;;;;;;2048382;29;20093;-95
2023/07/23 03:26:57;;;;;;;8.18;4.07;;;;;;;;;;2059226;28;20057;-95
2023/07/23 03:27:59;;;;;;;9.60;4.13;;;;;;;;;;2064629;28;20066;-94
2023/07/23 03:28:59;;;;;;;9.90;4.15;;;;;;;;;;2050173;28;20034;-95
2023/07/23 03:30:00;;;;;;;9.55;4.45;;;;;;;;;;2048629;29;20145;-94
2023/07/23 03:31:00;;;;;;;7.05;4.57;;;;;;;;;;2056579;28;20475;-95
2023/07/23 03:32:01;;;;;;;10.43;5.35;;;;;;;;;;2056473;28;20473;-94
2023/07/23 03:33:01;;;;;;;12.70;4.38;;;;;;;;;;2048360;29;20047;-95
2023/07/23 03:34:02;;;;;;;12.82;4.88;;;;;;;;;;2048428;29;20031;-94
2023/07/23 03:35:03;;;;;;;10.20;4.30;;;;;;;;;;2048586;28;20182;-95
2023/07/23 03:36:04;;;;;;;10.60;4.30;;;;;;;;;;2056415;28;20038;-94
2023/07/23 03:37:04;;;;;;;10.00;4.10;;;;;;;;;;2056313;28;20117;-94
2023/07/23 03:38:05;;;;;;;9.75;4.40;;;;;;;;;;2048402;29;20023;-96
2023/07/23 03:39:05;;;;;;;10.73;3.85;;;;;;;;;;2048197;29;20137;-95
2023/07/23 03:40:06;;;;;;;9.77;5.25;;;;;;;;;;2048466;29;20026;-95
2023/07/23 03:41:09;;;;;;;9.95;4.22;;;;;;;;;;2057256;28;20015;-94
2023/07/23 03:42:10;;;;;;;11.57;4.45;;;;;;;;;;2056800;28;20042;-95
2023/07/23 03:43:10;;;;;;;9.48;4.10;;;;;;;;;;2058622;28;20050;-95
2023/07/23 03:44:11;;;;;;;9.93;3.63;;;;;;;;;;2048858;29;20541;-94
2023/07/23 03:45:12;;;;;;;13.20;4.50;;;;;;;;;;2048205;29;20027;-95
2023/07/23 03:46:12;;;;;;;12.55;4.20;;;;;;;;;;2048404;29;20079;-95
2023/07/23 03:47:14;;;;;;;12.65;4.00;;;;;;;;;;2048192;29;20050;-94
2023/07/23 03:48:15;;;;;;;7.13;4.13;;;;;;;;;;2048595;28;20034;-93
2023/07/23 03:49:15;;;;;;;9.43;3.97;;;;;;;;;;2048622;29;20023;-94
2023/07/23 03:50:16;;;;;;;9.00;4.22;;;;;;;;;;2048671;29;20038;-94
2023/07/23 03:51:18;;;;;;;11.43;5.18;;;;;;;;;;2048424;29;20038;-95
2023/07/23 03:52:18;;;;;;;9.73;4.20;;;;;;;;;;2048634;28;20030;-94
2023/07/23 03:53:19;;;;;;;9.40;4.40;;;;;;;;;;2048642;29;20055;-94
2023/07/23 03:54:19;;;;;;;14.40;4.65;;;;;;;;;;2048364;29;20095;-94
2023/07/23 03:55:20;;;;;;;11.32;4.00;;;;;;;;;;2048357;29;20103;-95
2023/07/23 03:56:20;;;;;;;13.60;5.57;;;;;;;;;;2055937;28;20093;-95
2023/07/23 03:57:21;;;;;;;10.00;4.30;;;;;;;;;;2055824;28;20023;-94
2023/07/23 03:58:21;;;;;;;10.60;4.03;;;;;;;;;;2056185;28;20133;-96
2023/07/23 03:59:22;;;;;;;10.43;5.00;;;;;;;;;;2056200;28;20030;-95
2023/07/23 04:00:22;;;;;;;12.38;4.30;;;;;;;;;;2056310;28;20023;-94
2023/07/23 04:01:22;;;;;;;9.00;4.30;;;;;;;;;;2056234;28;20109;-95
2023/07/23 04:02:23;;;;;;;9.63;4.47;;;;;;;;;;2056079;28;20085;-94
2023/07/23 04:03:23;;;;;;;8.30;4.65;;;;;;;;;;2055868;28;20038;-95
2023/07/23 04:04:24;;;;;;;11.98;4.25;;;;;;;;;;2056336;28;20463;-95
2023/07/23 04:05:24;;;;;;;13.20;4.55;;;;;;;;;;2056200;28;20050;-94
2023/07/23 04:06:26;;;;;;;8.80;4.63;;;;;;;;;;2040528;29;20048;-96
2023/07/23 04:07:27;;;;;;;12.43;4.35;;;;;;;;;;2040398;28;20031;-94
2023/07/23 04:08:27;;;;;;;9.27;4.10;;;;;;;;;;2048080;29;20035;-95
2023/07/23 04:09:28;;;;;;;11.10;4.43;;;;;;;;;;2056330;28;20034;-95
2023/07/23 04:10:28;;;;;;;10.76;4.21;;;;;;;;;;1701226;28;10348772;-95
2023/07/23 04:11:29;;;;;;;13.45;4.78;;;;;;;;;;2056358;28;20027;-95
2023/07/23 04:12:29;;;;;;;9.85;4.85;;;;;;;;;;2058314;28;20105;-95
2023/07/23 04:13:29;;;;;;;9.60;4.07;;;;;;;;;;2060678;28;20121;-94
2023/07/23 04:14:30;;;;;;;9.23;4.00;;;;;;;;;;2057543;28;20034;-95
2023/07/23 04:15:35;;;;;;;10.40;4.25;;;;;;;;;;2056191;28;20034;-95
2023/07/23 04:16:35;;;;;;;11.05;5.00;;;;;;;;;;2056365;28;20108;-95
2023/07/23 04:17:36;;;;;;;13.63;5.82;;;;;;;;;;2056188;28;20122;-96
2023/07/23 04:18:51;;;;;;;8.60;4.00;;;;;;;;;;2056247;28;20054;-96
2023/07/23 04:19:51;;;;;;;8.50;4.53;;;;;;;;;;2050089;28;20217;-96
2023/07/23 04:20:51;;;;;;;9.98;4.70;;;;;;;;;;2056259;28;20022;-95
2023/07/23 04:21:52;;;;;;;10.93;4.75;;;;;;;;;;2065088;28;20029;-94
2023/07/23 04:22:52;;;;;;;9.65;4.15;;;;;;;;;;2056099;28;20136;-95
2023/07/23 04:23:55;;;;;;;12.43;4.35;;;;;;;;;;2056341;28;20429;-95
2023/07/23 04:24:56;;;;;;;7.03;4.30;;;;;;;;;;2048497;28;20019;-95
2023/07/23 04:25:56;;;;;;;10.13;4.05;;;;;;;;;;2048105;29;20023;-94
2023/07/23 04:26:56;;;;;;;8.15;4.78;;;;;;;;;;2056195;28;20066;-94
2023/07/23 04:27:57;;;;;;;11.60;4.25;;;;;;;;;;2056232;28;20563;-96
2023/07/23 04:28:58;;;;;;;10.85;4.75;;;;;;;;;;2048175;29;20066;-95
2023/07/23 04:29:58;;;;;;;11.30;4.47;;;;;;;;;;2048114;28;20057;-95
2023/07/23 04:30:59;;;;;;;11.60;4.20;;;;;;;;;;2056181;28;20038;-95
2023/07/23 04:31:59;;;;;;;9.70;4.57;;;;;;;;;;2056109;28;20031;-95
2023/07/23 04:33:00;;;;;;;6.00;3.55;;;;;;;;;;2048073;29;20034;-93
2023/07/23 04:34:01;;;;;;;9.85;4.53;;;;;;;;;;2048402;28;20050;-93
2023/07/23 04:35:04;;;;;;;8.93;4.13;;;;;;;;;;2048313;28;20034;-95
2023/07/23 04:36:07;;;;;;;7.53;4.00;;;;;;;;;;2056362;28;20023;-94
2023/07/23 04:37:09;;;;;;;13.93;4.28;;;;;;;;;;2055958;28;20027;-94
2023/07/23 04:38:09;;;;;;;11.20;4.60;;;;;;;;;;2048218;28;20031;-93
2023/07/23 04:39:10;;;;;;;10.98;4.43;;;;;;;;;;2048080;29;20027;-93
2023/07/23 04:40:10;;;;;;;8.32;4.25;;;;;;;;;;2048137;29;20055;-93
2023/07/23 04:41:12;;;;;;;11.65;4.40;;;;;;;;;;2047789;29;20027;-93
2023/07/23 04:42:12;;;;;;;12.52;4.63;;;;;;;;;;1706408;28;10000121;-94
2023/07/23 04:43:13;;;;;;;8.38;4.00;;;;;;;;;;2048145;29;20035;-95
2023/07/23 04:44:13;;;;;;;8.05;3.90;;;;;;;;;;2048259;29;20039;-94
2023/07/23 04:45:13;;;;;;;11.20;4.28;;;;;;;;;;2048279;29;20035;-95
2023/07/23 04:46:14;;;;;;;12.60;4.45;;;;;;;;;;2048136;29;20149;-94
2023/07/23 04:47:14;;;;;;;9.88;4.18;;;;;;;;;;2048032;29;20471;-94
2023/07/23 04:48:16;;;;;;;8.13;4.15;;;;;;;;;;2056273;28;20026;-95
2023/07/23 04:49:16;;;;;;;8.70;3.72;;;;;;;;;;2056041;28;20022;-95
2023/07/23 04:50:17;;;;;;;7.70;3.70;;;;;;;;;;2048117;29;20159;-95
2023/07/23 04:51:17;;;;;;;7.93;3.58;;;;;;;;;;2048135;29;20424;-95
2023/07/23 04:52:18;;;;;;;4.82;3.38;;;;;;;;;;2056253;28;20045;-96
2023/07/23 04:53:20;;;;;;;9.95;3.40;;;;;;;;;;2056148;28;20062;-95
2023/07/23 04:54:20;;;;;;;7.32;3.03;;;;;;;;;;2056415;28;20027;-94
2023/07/23 04:55:21;;;;;;;8.13;3.30;;;;;;;;;;2055891;28;20034;-95
2023/07/23 04:56:21;;;;;;;8.18;3.65;;;;;;;;;;2056157;28;20034;-94
2023/07/23 04:57:22;;;;;;;9.15;3.67;;;;;;;;;;2056179;28;20035;-94
2023/07/23 04:58:23;;;;;;;8.43;3.28;;;;;;;;;;2060985;28;20494;-95
2023/07/23 04:59:24;;;;;;;9.20;3.72;;;;;;;;;;2063982;28;20030;-94
2023/07/23 05:00:25;;;;;;;7.78;3.30;;;;;;;;;;2056715;28;20482;-94
2023/07/23 05:01:25;;;;;;;8.18;3.58;;;;;;;;;;2056892;28;20031;-93
2023/07/23 05:02:26;;;;;;;10.30;3.92;;;;;;;;;;2054445;29;20056;-93
2023/07/23 05:03:26;;;;;;;8.30;3.50;;;;;;;;;;2053297;29;20067;-93
2023/07/23 05:04:28;;;;;;;11.55;3.85;;;;;;;;;;2057213;28;20046;-94
2023/07/23 05:05:32;;;;;;;7.90;3.40;;;;;;;;;;2056466;28;20063;-94
2023/07/23 05:06:32;;;;;;;10.38;3.65;;;;;;;;;;2048660;28;20075;-95
2023/07/23 05:07:33;;;;;;;11.38;4.00;;;;;;;;;;2047911;29;20074;-95
2023/07/23 05:08:34;;;;;;;7.45;3.35;;;;;;;;;;2056030;28;20123;-96
2023/07/23 05:09:34;;;;;;;12.10;4.22;;;;;;;;;;2057578;28;20047;-94
2023/07/23 05:10:35;;;;;;;10.63;3.50;;;;;;;;;;2057739;28;20435;-94
2023/07/23 05:11:35;;;;;;;7.40;3.30;;;;;;;;;;2049510;29;20502;-95
2023/07/23 05:12:36;;;;;;;12.20;3.63;;;;;;;;;;2057818;28;20054;-95
2023/07/23 05:13:36;;;;;;;10.93;4.07;;;;;;;;;;2049525;29;20478;-95
2023/07/23 05:14:37;;;;;;;7.53;3.65;;;;;;;;;;2057543;28;20023;-94
2023/07/23 05:15:37;;;;;;;10.65;3.63;;;;;;;;;;2057754;28;20188;-96
2023/07/23 05:16:38;;;;;;;8.57;3.67;;;;;;;;;;2049361;29;20442;-95
2023/07/23 05:17:39;;;;;;;13.57;3.83;;;;;;;;;;2057305;28;20030;-95
2023/07/23 05:18:40;;;;;;;8.45;3.47;;;;;;;;;;2049626;28;20035;-95
2023/07/23 05:19:40;;;;;;;9.70;3.60;;;;;;;;;;2057484;28;20030;-96
2023/07/23 05:20:41;;;;;;;8.48;3.53;;;;;;;;;;2057431;28;20108;-95
2023/07/23 05:21:41;;;;;;;8.80;3.70;;;;;;;;;;2049547;29;20407;-95
2023/07/23 05:22:42;;;;;;;7.03;2.92;;;;;;;;;;2057547;28;20031;-95
2023/07/23 05:23:43;;;;;;;6.10;2.95;;;;;;;;;;2049577;29;20043;-96
2023/07/23 05:24:43;;;;;;;9.52;3.17;;;;;;;;;;2057675;28;20093;-96
2023/07/23 05:25:44;;;;;;;6.60;3.08;;;;;;;;;;2057411;28;20189;-94
2023/07/23 05:26:45;;;;;;;8.32;3.20;;;;;;;;;;2049324;28;20043;-95
2023/07/23 05:27:45;;;;;;;7.88;3.80;;;;;;;;;;2049645;29;20031;-93
2023/07/23 05:28:46;;;;;;;8.85;3.42;;;;;;;;;;2057396;28;20569;-94
2023/07/23 05:29:47;;;;;;;9.63;3.50;;;;;;;;;;2065878;28;20137;-95
2023/07/23 05:30:47;;;;;;;9.85;4.05;;;;;;;;;;2057107;28;20098;-95
2023/07/23 05:31:48;;;;;;;6.95;3.40;;;;;;;;;;2057474;28;20360;-93
2023/07/23 05:32:49;;;;;;;6.70;3.38;;;;;;;;;;2057051;28;20027;-95
2023/07/23 05:33:49;;;;;;;8.40;3.10;;;;;;;;;;2057318;28;20023;-94
2023/07/23 05:34:50;;;;;;;5.72;3.10;;;;;;;;;;2065972;28;20112;-96
2023/07/23 05:35:51;;;;;;;6.43;3.50;;;;;;;;;;2057134;28;20136;-95
2023/07/23 05:36:52;;;;;;;8.43;3.33;;;;;;;;;;2057439;28;20033;-96
2023/07/23 05:37:52;;;;;;;9.02;3.72;;;;;;;;;;2057210;28;20429;-95
2023/07/23 05:38:52;;;;;;;6.68;2.88;;;;;;;;;;2057302;28;20137;-95
2023/07/23 05:39:53;;;;;;;10.00;3.22;;;;;;;;;;2057251;28;20067;-94
2023/07/23 05:40:57;;;;;;;9.55;3.95;;;;;;;;;;2057237;28;20419;-96
2023/07/23 05:41:58;;;;;;;7.15;3.33;;;;;;;;;;2057178;28;20053;-95
2023/07/23 05:42:59;;;;;;;9.63;3.50;;;;;;;;;;2057189;28;20046;-95
2023/07/23 05:44:00;;;;;;;8.02;3.20;;;;;;;;;;2069414;28;20026;-95
2023/07/23 05:45:00;;;;;;;9.32;3.30;;;;;;;;;;2062853;28;20025;-93
2023/07/23 05:46:01;;;;;;;7.93;3.50;;;;;;;;;;2050594;29;20510;-94
2023/07/23 05:47:01;;;;;;;10.23;3.45;;;;;;;;;;2049406;29;20031;-95
2023/07/23 05:48:04;;;;;;;10.50;3.17;;;;;;;;;;2049458;29;20023;-95
2023/07/23 05:49:04;;;;;;;6.67;3.13;;;;;;;;;;1706878;28;10001281;-95
2023/07/23 05:50:05;;;;;;;6.25;2.80;;;;;;;;;;2049464;29;20027;-95
2023/07/23 05:51:06;;;;;;;6.70;3.10;;;;;;;;;;2049164;28;20034;-95
2023/07/23 05:52:07;;;;;;;6.10;3.03;;;;;;;;;;2057271;28;20034;-95
2023/07/23 05:53:07;;;;;;;8.45;3.05;;;;;;;;;;2049400;29;20031;-95
2023/07/23 05:54:07;;;;;;;7.95;3.00;;;;;;;;;;2057231;28;20403;-94
2023/07/23 05:55:08;;;;;;;6.68;2.97;;;;;;;;;;2049152;29;20027;-95
2023/07/23 05:56:08;;;;;;;8.20;3.35;;;;;;;;;;2057142;28;20038;-94
2023/07/23 05:57:09;;;;;;;9.73;4.25;;;;;;;;;;2066153;28;20034;-94
2023/07/23 05:58:09;;;;;;;9.45;3.60;;;;;;;;;;2066172;28;20088;-94
2023/07/23 05:59:10;;;;;;;7.63;3.17;;;;;;;;;;2057579;28;20022;-93
2023/07/23 06:00:11;;;;;;;7.10;3.35;;;;;;;;;;2057890;28;20026;-96
2023/07/23 06:01:49;;;;;;;8.20;3.08;;;;;;;;;;2065768;28;20065;-95
2023/07/23 06:03:19;;;;;;;7.93;3.90;;;;;;;;;;2058404;28;20392;-95
2023/07/23 06:04:20;;;;;;;7.85;3.00;;;;;;;;;;2052715;28;20043;-96
2023/07/23 06:05:21;;;;;;;7.68;3.33;;;;;;;;;;2048899;29;20027;-95
2023/07/23 06:06:22;;;;;;;8.45;3.50;;;;;;;;;;2048895;29;20521;-96
2023/07/23 06:07:23;;;;;;;8.27;3.63;;;;;;;;;;2048999;28;20073;-95
2023/07/23 06:08:23;;;;;;;8.75;3.13;;;;;;;;;;2048986;28;20031;-96
2023/07/23 06:09:25;;;;;;;9.55;3.03;;;;;;;;;;2057008;28;20035;-94
2023/07/23 06:10:25;;;;;;;8.75;3.60;;;;;;;;;;2057054;28;20023;-95
2023/07/23 06:11:26;;;;;;;8.35;3.60;;;;;;;;;;2048940;29;20047;-95
2023/07/23 06:12:27;;;;;;;9.63;3.55;;;;;;;;;;2048997;29;20070;-95
2023/07/23 06:13:27;;;;;;;7.35;2.90;;;;;;;;;;2057254;28;20049;-94
2023/07/23 06:14:29;;;;;;;5.50;3.10;;;;;;;;;;2065932;28;20431;-95
2023/07/23 06:15:29;;;;;;;12.05;3.33;;;;;;;;;;2065741;28;20030;-95
2023/07/23 06:16:30;;;;;;;8.82;3.13;;;;;;;;;;2056627;28;20031;-95
2023/07/23 06:17:31;;;;;;;8.73;3.78;;;;;;;;;;2048827;28;20375;-94
2023/07/23 06:18:35;;;;;;;7.13;3.13;;;;;;;;;;2048836;28;20082;-94
2023/07/23 06:19:35;;;;;;;9.52;2.95;;;;;;;;;;2049299;28;20031;-95
2023/07/23 06:20:36;;;;;;;7.00;3.10;;;;;;;;;;2056615;28;20027;-95
2023/07/23 06:21:36;;;;;;;10.73;3.63;;;;;;;;;;2056713;28;20422;-94
2023/07/23 06:22:37;;;;;;;8.82;3.65;;;;;;;;;;2056881;28;20046;-95
2023/07/23 06:23:37;;;;;;;6.68;3.45;;;;;;;;;;2056786;28;20121;-94
2023/07/23 06:24:37;;;;;;;5.65;2.63;;;;;;;;;;2048971;28;20019;-96
2023/07/23 06:25:39;;;;;;;7.68;3.20;;;;;;;;;;2049001;29;20122;-96
2023/07/23 06:26:39;;;;;;;7.15;2.60;;;;;;;;;;2049711;28;20118;-94
2023/07/23 08:11:07;;;;;;;11.55;3.70;;;;;;;;;;2092698;22;20037;-94
2023/07/23 08:12:10;;;;;;;11.05;3.75;;;;;;;;;;2075858;28;20029;-95
2023/07/23 08:13:17;;;;;;;8.40;4.03;;;;;;;;;;2064387;28;20030;-96
2023/07/23 08:14:21;;;;;;;8.80;3.90;;;;;;;;;;2058829;28;20481;-95
2023/07/23 08:15:22;;;;;;;8.02;3.70;;;;;;;;;;2068543;28;20107;-94
2023/07/23 08:16:25;;;;;;;6.80;3.13;;;;;;;;;;2066229;28;20056;-95
2023/07/23 08:17:26;;;;;;;8.27;3.60;;;;;;;;;;2076949;28;20022;-93
2023/07/23 08:18:29;;;;;;;11.10;3.25;;;;;;;;;;2064533;28;20510;-94
2023/07/23 08:19:30;;;;;;;5.82;3.35;;;;;;;;;;2056821;28;20042;-94
2023/07/23 08:20:39;;;;;;;7.35;3.00;;;;;;;;;;2064399;28;20090;-96
2023/07/23 08:21:40;;;;;;;8.18;3.53;;;;;;;;;;2064569;28;20029;-95
2023/07/23 08:22:40;;;;;;;8.07;3.50;;;;;;;;;;2056358;28;20019;-94
2023/07/23 08:23:46;;;;;;;9.38;3.40;;;;;;;;;;2057178;28;20071;-96
2023/07/23 08:24:49;;;;;;;5.95;3.22;;;;;;;;;;2058026;28;20022;-94
2023/07/23 08:25:53;;;;;;;12.38;3.67;;;;;;;;;;2065552;28;20018;-93
2023/07/23 08:27:06;;;;;;;10.20;4.05;;;;;;;;;;2064876;28;20076;-96
2023/07/23 08:28:17;;;;;;;7.93;3.50;;;;;;;;;;2058385;28;20089;-96
2023/07/23 08:29:28;;;;;;;12.30;3.78;;;;;;;;;;2066639;28;20034;-95
2023/07/23 08:30:30;;;;;;;11.02;3.80;;;;;;;;;;2065838;28;20026;-94
2023/07/23 08:31:39;;;;;;;9.57;3.42;;;;;;;;;;2061131;28;20010;-95
2023/07/23 08:32:41;;;;;;;7.10;3.55;;;;;;;;;;2066847;28;20042;-96
2023/07/23 08:33:52;;;;;;;10.07;3.72;;;;;;;;;;2065073;28;20495;-95
2023/07/23 08:34:53;;;;;;;8.63;4.13;;;;;;;;;;2070623;28;20046;-96
2023/07/23 08:35:56;;;;;;;6.85;3.47;;;;;;;;;;1745585;28;10002013;-94
2023/07/23 08:43:47;;;;;;;10.93;4.68;;;;;;;;;;2056681;28;20038;-96
2023/07/23 08:45:12;;;;;;;7.90;3.88;;;;;;;;;;2050154;29;20035;-95
2023/07/23 08:46:27;;;;;;;7.10;4.15;;;;;;;;;;2045924;29;20023;-96
2023/07/23 08:51:47;;;;;;;7.43;4.22;;;;;;;;;;2057736;28;20118;-94
2023/07/23 08:52:49;;;;;;;10.63;4.47;;;;;;;;;;2058184;28;20068;-94
2023/07/23 08:54:02;;;;;;;9.57;4.32;;;;;;;;;;2057634;28;20422;-96
2023/07/23 08:55:03;;;;;;;11.68;4.45;;;;;;;;;;2051283;28;20077;-96
2023/07/23 08:57:02;;;;;;;10.32;4.22;;;;;;;;;;2067344;28;20498;-95
2023/07/23 08:58:10;;;;;;;6.90;4.35;;;;;;;;;;2037834;29;20054;-94
2023/07/23 08:59:14;;;;;;;8.70;4.20;;;;;;;;;;2027787;29;20154;-95
2023/07/23 09:00:15;;;;;;;6.90;3.95;;;;;;;;;;2054001;28;20042;-96
2023/07/23 09:01:16;;;;;;;9.07;4.68;;;;;;;;;;2057665;28;20358;-95
2023/07/23 09:02:19;;;;;;;7.97;4.40;;;;;;;;;;2057552;28;20035;-96
2023/07/23 09:03:21;;;;;;;8.10;4.75;;;;;;;;;;2066423;28;20081;-96
2023/07/23 09:04:22;;;;;;;10.20;4.28;;;;;;;;;;2058021;28;20209;-96
2023/07/23 09:11:26;;;;;;;10.48;4.22;;;;;;;;;;2059630;28;20055;-95
2023/07/23 09:12:29;;;;;;;10.50;4.57;;;;;;;;;;2073629;28;20029;-94
2023/07/23 09:13:39;;;;;;;9.05;4.15;;;;;;;;;;2066336;28;20030;-96
2023/07/23 09:14:44;;;;;;;9.35;4.45;;;;;;;;;;2067525;28;20036;-95
2023/07/23 09:15:53;;;;;;;9.20;4.90;;;;;;;;;;2073872;28;20457;-96
2023/07/23 09:16:53;;;;;;;7.93;4.20;;;;;;;;;;2067132;28;20509;-94
2023/07/23 09:17:54;;;;;;;11.05;4.10;;;;;;;;;;2066302;28;20041;-94
2023/07/23 09:18:54;;;;;;;10.07;4.65;;;;;;;;;;2073859;28;20026;-96
2023/07/23 09:19:55;;;;;;;10.90;4.53;;;;;;;;;;2066013;28;20050;-94
2023/07/23 09:20:57;;;;;;;10.85;4.75;;;;;;;;;;2074505;28;20157;-96
2023/07/23 09:21:57;;;;;;;8.95;4.35;;;;;;;;;;2074409;28;20022;-95
2023/07/23 09:23:05;;;;;;;7.28;4.63;;;;;;;;;;2066255;28;20030;-94
2023/07/23 09:24:07;;;;;;;7.50;4.50;;;;;;;;;;2074220;28;20038;-96
2023/07/23 09:25:09;;;;;;;11.05;5.38;;;;;;;;;;2066456;28;20030;-95
2023/07/23 09:26:10;;;;;;;10.02;4.57;;;;;;;;;;2073760;28;20030;-96
2023/07/23 09:27:11;;;;;;;8.77;4.43;;;;;;;;;;2074596;28;20037;-96
2023/07/23 09:28:24;;;;;;;11.82;4.93;;;;;;;;;;2074745;28;20046;-96
2023/07/23 09:29:34;;;;;;;16.13;5.38;;;;;;;;;;2074273;28;20034;-96
2023/07/23 09:30:34;;;;;;;11.00;5.00;;;;;;;;;;2073810;28;20056;-95
2023/07/23 09:31:36;;;;;;;10.68;5.35;;;;;;;;;;2065977;28;20121;-96
2023/07/23 09:32:36;;;;;;;9.65;5.15;;;;;;;;;;2082290;28;20129;-95
2023/07/23 09:33:40;;;;;;;11.95;5.50;;;;;;;;;;2081364;28;20325;-95
2023/07/23 09:34:48;;;;;;;10.00;4.90;;;;;;;;;;2074036;28;20053;-96
2023/07/23 09:35:48;;;;;;;9.05;4.78;;;;;;;;;;2073593;28;20402;-95
2023/07/23 09:36:52;;;;;;;8.95;4.68;;;;;;;;;;2065561;28;20029;-94
2023/07/23 09:37:59;;;;;;;10.45;4.72;;;;;;;;;;2065955;28;20084;-96
2023/07/23 09:39:04;;;;;;;10.35;5.13;;;;;;;;;;2066612;28;20022;-95
2023/07/23 09:40:05;;;;;;;8.63;4.60;;;;;;;;;;2066073;28;20018;-96
2023/07/23 09:41:07;;;;;;;7.88;4.90;;;;;;;;;;2065389;28;20022;-93
2023/07/23 09:42:07;;;;;;;12.02;5.38;;;;;;;;;;2065899;28;20022;-96
2023/07/23 09:43:08;;;;;;;8.98;5.32;;;;;;;;;;2065454;28;20015;-96
2023/07/23 09:44:12;;;;;;;11.30;5.50;;;;;;;;;;2065390;28;20176;-94
2023/07/23 09:45:13;;;;;;;8.15;4.80;;;;;;;;;;2065986;28;20022;-95
2023/07/23 09:46:13;;;;;;;9.82;5.60;;;;;;;;;;2065543;28;20026;-96
2023/07/23 09:47:14;;;;;;;7.55;4.80;;;;;;;;;;2065455;28;20220;-96
2023/07/23 09:48:16;;;;;;;8.32;5.22;;;;;;;;;;2065587;28;20109;-96
2023/07/23 09:49:23;;;;;;;11.70;5.47;;;;;;;;;;2065729;28;20069;-95
2023/07/23 09:50:23;;;;;;;9.05;5.07;;;;;;;;;;2066358;28;20057;-94
2023/07/23 09:51:24;;;;;;;9.45;5.22;;;;;;;;;;2066093;28;20109;-95
2023/07/23 09:52:34;;;;;;;11.55;4.95;;;;;;;;;;2065561;28;20454;-95
2023/07/23 09:53:35;;;;;;;9.50;6.32;;;;;;;;;;2067140;28;20026;-94
2023/07/23 09:54:36;;;;;;;10.73;4.88;;;;;;;;;;2065569;28;20065;-95
2023/07/23 09:55:38;;;;;;;8.73;4.57;;;;;;;;;;2065243;28;20379;-96
2023/07/23 09:56:41;;;;;;;11.27;5.65;;;;;;;;;;2065569;28;20065;-96
2023/07/23 09:57:45;;;;;;;9.82;5.25;;;;;;;;;;2069635;28;20446;-96
2023/07/23 09:58:48;;;;;;;12.13;5.72;;;;;;;;;;2065994;28;20027;-96
2023/07/23 09:59:53;;;;;;;10.18;5.88;;;;;;;;;;2066220;28;20094;-96
2023/07/23 10:00:57;;;;;;;10.60;5.60;;;;;;;;;;2073954;28;20093;-95
2023/07/23 10:01:59;;;;;;;10.07;5.72;;;;;;;;;;2073662;28;20098;-95
2023/07/23 10:03:00;;;;;;;12.32;6.03;;;;;;;;;;2073984;28;20026;-96
2023/07/23 10:04:04;;;;;;;10.73;5.38;;;;;;;;;;2073365;28;20026;-94
2023/07/23 10:05:09;;;;;;;10.52;5.78;;;;;;;;;;2065954;28;20029;-96
2023/07/23 10:06:11;;;;;;;8.45;5.75;;;;;;;;;;2066377;28;20097;-96
2023/07/23 10:07:16;;;;;;;11.63;5.47;;;;;;;;;;2065882;28;20022;-96
2023/07/23 10:08:17;;;;;;;9.77;6.03;;;;;;;;;;2065860;28;20030;-96
2023/07/23 10:09:18;;;;;;;15.30;6.03;;;;;;;;;;2065589;28;20415;-96
2023/07/23 10:10:21;;;;;;;14.13;5.90;;;;;;;;;;2073628;28;20022;-96
2023/07/23 10:11:28;;;;;;;12.18;6.40;;;;;;;;;;2065963;28;20026;-96
2023/07/23 10:12:31;;;;;;;11.57;6.70;;;;;;;;;;2066702;28;20092;-96
2023/07/23 10:13:32;;;;;;;12.68;6.70;;;;;;;;;;2066275;28;20068;-96
2023/07/23 10:14:34;;;;;;;10.77;6.18;;;;;;;;;;2066213;28;20030;-96
2023/07/23 10:15:37;;;;;;;10.43;6.40;;;;;;;;;;2065726;28;20030;-96
2023/07/23 10:16:40;;;;;;;13.75;6.13;;;;;;;;;;2065674;28;20026;-96
2023/07/23 10:17:44;;;;;;;13.55;6.40;;;;;;;;;;2077259;28;20034;-96
2023/07/23 10:18:46;;;;;;;12.40;6.20;;;;;;;;;;2083274;28;20049;-95
2023/07/23 10:19:51;;;;;;;15.02;6.78;;;;;;;;;;2069530;28;20046;-96
2023/07/23 10:20:51;;;;;;;10.38;6.97;;;;;;;;;;2066376;28;20031;-96
2023/07/23 10:21:52;;;;;;;11.32;6.57;;;;;;;;;;2065887;28;20030;-95
2023/07/23 10:22:52;;;;;;;13.20;6.90;;;;;;;;;;2073883;28;20058;-96
2023/07/23 10:23:55;;;;;;;10.93;5.70;;;;;;;;;;2074182;28;20018;-96
2023/07/23 10:24:56;;;;;;;12.45;5.47;;;;;;;;;;2065926;28;20022;-96
2023/07/23 10:26:22;;;;;;;10.80;6.00;;;;;;;;;;2067146;28;20026;-94
2023/07/23 10:27:23;;;;;;;11.98;6.70;;;;;;;;;;2074438;28;20033;-95
2023/07/23 10:28:24;;;;;;;11.27;6.20;;;;;;;;;;2073965;28;20446;-95
2023/07/23 10:29:25;;;;;;;12.38;5.93;;;;;;;;;;2065235;28;20038;-96
2023/07/23 10:30:31;;;;;;;10.15;6.13;;;;;;;;;;2073857;28;20501;-96
2023/07/23 10:31:31;;;;;;;12.32;5.80;;;;;;;;;;2066246;28;20490;-96
2023/07/23 10:32:32;;;;;;;11.07;6.40;;;;;;;;;;2068219;28;20117;-94
2023/07/23 10:33:33;;;;;;;12.45;7.50;;;;;;;;;;2068327;28;20026;-95
2023/07/23 10:34:46;;;;;;;12.95;7.35;;;;;;;;;;2068542;28;20046;-91
2023/07/23 10:35:55;;;;;;;14.55;8.20;;;;;;;;;;2067711;28;20026;-95
2023/07/23 10:37:18;;;;;;;18.42;9.02;;;;;;;;;;2066276;28;20031;-95
2023/07/23 10:38:40;;;;;;;13.82;8.20;;;;;;;;;;2073662;28;20030;-93
2023/07/23 10:39:45;;;;;;;18.08;9.05;;;;;;;;;;2074426;28;20124;-95
2023/07/23 10:40:47;;;;;;;14.20;8.35;;;;;;;;;;2074274;28;20029;-95
2023/07/23 10:42:08;;;;;;;16.98;8.68;;;;;;;;;;2068985;28;20098;-96
2023/07/23 10:43:12;;;;;;;14.68;8.57;;;;;;;;;;2071362;28;20466;-95
2023/07/23 10:44:20;;;;;;;16.20;9.02;;;;;;;;;;2066458;28;20036;-92
2023/07/23 10:45:25;;;;;;;16.52;8.50;;;;;;;;;;2066130;28;20034;-96
2023/07/23 10:46:26;;;;;;;17.83;9.27;;;;;;;;;;2058469;28;20195;-96
2023/07/23 10:47:32;;;;;;;13.98;8.25;;;;;;;;;;2073585;28;20588;-95
2023/07/23 10:48:42;;;;;;;16.02;9.05;;;;;;;;;;2073193;28;20092;-95
2023/07/23 10:50:11;;;;;;;16.77;9.15;;;;;;;;;;2066173;28;20092;-95
2023/07/23 10:51:13;;;;;;;16.00;8.43;;;;;;;;;;2069632;28;20041;-96
2023/07/23 10:52:16;;;;;;;19.40;10.07;;;;;;;;;;2067928;28;20081;-95
2023/07/23 10:53:17;;;;;;;17.60;10.27;;;;;;;;;;2076589;28;20018;-96
2023/07/23 10:54:21;;;;;;;16.10;9.35;;;;;;;;;;2067542;28;20113;-94
2023/07/23 10:55:54;;;;;;;18.88;9.60;;;;;;;;;;2068821;28;20034;-96
2023/07/23 10:56:54;;;;;;;16.67;10.35;;;;;;;;;;2066095;28;20373;-96
2023/07/23 10:57:55;;;;;;;15.70;8.77;;;;;;;;;;2066029;28;20081;-95
2023/07/23 10:59:17;;;;;;;16.38;8.93;;;;;;;;;;2075991;28;20033;-96
2023/07/23 11:00:21;;;;;;;15.88;8.82;;;;;;;;;;2073493;28;20029;-96
2023/07/23 11:01:23;;;;;;;16.63;9.77;;;;;;;;;;2065463;28;20034;-94
2023/07/23 11:02:27;;;;;;;17.98;10.20;;;;;;;;;;2073271;28;20116;-94
2023/07/23 11:03:27;;;;;;;17.80;10.43;;;;;;;;;;1732904;28;10002575;-95
2023/07/23 11:04:37;;;;;;;18.48;9.65;;;;;;;;;;2073986;28;20021;-94
2023/07/23 11:05:48;;;;;;;17.45;10.55;;;;;;;;;;2074097;28;20117;-95
2023/07/23 11:09:07;;;;;;;19.65;10.98;;;;;;;;;;2056973;28;20470;-96
2023/07/23 11:10:19;;;;;;;20.83;9.73;;;;;;;;;;2057390;28;20030;-95